Time;durP1;ratioP1;P1;durP2;ratioP2;P2;SDS_P1;SDS_P2;PMS_P1;PMS_P2;Temp;Humidity;BMP_temperature;BMP_pressure;BME280_temperature;BME280_humidity;BME280_pressure;Samples;Min_cycle;Max_cycle;Signal;HPM_P1;HPM_P2
2021/12/19 00:04:39;;;;;;;3.65;1.90;;;6.40;99.90;;;;;;5073779;28;20399;-87
2021/12/19 00:09:53;;;;;;;2.92;1.67;;;6.40;99.90;;;;;;5136619;27;20563;-86
2021/12/19 00:12:19;;;;;;;1.83;1.73;;;6.40;99.90;;;;;;5136859;27;20039;-87
2021/12/19 00:14:46;;;;;;;2.45;1.65;;;6.50;99.90;;;;;;5118573;27;20051;-87
2021/12/19 00:17:13;;;;;;;1.70;1.60;;;6.50;99.90;;;;;;5118845;27;20048;-87
2021/12/19 00:19:40;;;;;;;3.28;1.75;;;6.50;99.90;;;;;;5118559;27;20043;-87
2021/12/19 00:22:07;;;;;;;2.70;1.70;;;6.50;99.90;;;;;;5118465;27;20076;-87
2021/12/19 00:24:34;;;;;;;4.10;1.50;;;6.50;99.90;;;;;;5118385;27;20120;-87
2021/12/19 00:27:01;;;;;;;3.08;1.63;;;6.50;99.90;;;;;;5118419;27;20055;-87
2021/12/19 00:29:28;;;;;;;2.22;1.52;;;6.50;99.90;;;;;;5118235;27;20047;-87
2021/12/19 00:31:54;;;;;;;4.72;2.03;;;6.50;99.90;;;;;;5118267;27;20134;-87
2021/12/19 00:34:21;;;;;;;4.03;1.92;;;6.50;99.90;;;;;;5118476;27;20447;-87
2021/12/19 00:36:48;;;;;;;2.55;1.83;;;6.40;99.90;;;;;;5136154;27;20043;-87
2021/12/19 00:39:15;;;;;;;2.17;1.70;;;6.30;99.90;;;;;;5118248;27;20047;-86
2021/12/19 00:41:42;;;;;;;2.78;2.10;;;6.40;99.90;;;;;;5118136;27;20051;-86
2021/12/19 00:44:14;;;;;;;2.38;1.92;;;6.40;99.90;;;;;;5136403;27;20053;-88
2021/12/19 00:46:49;;;;;;;2.10;1.90;;;6.40;99.90;;;;;;5118439;27;20256;-87
2021/12/19 00:49:20;;;;;;;3.00;2.10;;;6.40;99.90;;;;;;5118369;27;20480;-87
2021/12/19 00:51:47;;;;;;;3.60;2.10;;;6.40;99.90;;;;;;5119365;27;20059;-87
2021/12/19 00:54:14;;;;;;;6.03;2.33;;;6.40;99.90;;;;;;5118541;27;20087;-87
2021/12/19 00:56:43;;;;;;;4.03;2.30;;;6.40;99.90;;;;;;5118724;27;20057;-87
2021/12/19 00:59:11;;;;;;;4.18;2.00;;;6.40;99.90;;;;;;5129760;27;20047;-87
2021/12/19 01:01:42;;;;;;;2.15;1.95;;;6.40;99.90;;;;;;5118700;27;20055;-87
2021/12/19 01:04:12;;;;;;;5.40;2.35;;;6.40;99.90;;;;;;5119118;27;20043;-87
2021/12/19 01:06:42;;;;;;;2.22;1.95;;;6.40;99.90;;;;;;5136406;27;20143;-87
2021/12/19 01:09:10;;;;;;;2.25;2.05;;;6.40;99.90;;;;;;5136155;27;20463;-87
2021/12/19 01:11:37;;;;;;;2.25;2.03;;;6.40;99.90;;;;;;5135741;27;20051;-87
2021/12/19 01:14:05;;;;;;;3.65;1.80;;;6.40;99.90;;;;;;5135938;27;20050;-87
2021/12/19 01:16:32;;;;;;;2.67;1.77;;;6.40;99.90;;;;;;5117601;27;20043;-87
2021/12/19 01:18:59;;;;;;;3.60;2.50;;;6.40;99.90;;;;;;5135370;27;20049;-87
2021/12/19 01:21:26;;;;;;;1.95;1.77;;;6.40;99.90;;;;;;5117664;27;20069;-87
2021/12/19 01:23:53;;;;;;;2.35;2.20;;;6.40;99.90;;;;;;5117649;27;20053;-87
2021/12/19 01:26:20;;;;;;;3.40;2.28;;;6.40;99.90;;;;;;5117812;27;20043;-87
2021/12/19 01:28:47;;;;;;;2.35;2.05;;;6.30;99.90;;;;;;5117316;27;20051;-87
2021/12/19 01:31:14;;;;;;;3.38;2.20;;;6.30;99.90;;;;;;5117359;27;20051;-87
2021/12/19 01:33:41;;;;;;;4.40;2.15;;;6.30;99.90;;;;;;5117299;27;20087;-87
2021/12/19 01:36:08;;;;;;;3.05;2.17;;;6.30;99.90;;;;;;5117290;27;20046;-87
2021/12/19 01:38:35;;;;;;;3.92;2.33;;;6.30;99.90;;;;;;5117130;27;20054;-87
2021/12/19 01:41:01;;;;;;;2.67;2.20;;;6.40;99.90;;;;;;5117339;27;20061;-86
2021/12/19 01:43:31;;;;;;;4.30;2.30;;;6.30;99.90;;;;;;5117360;27;20039;-86
2021/12/19 01:45:58;;;;;;;2.72;2.33;;;6.30;99.90;;;;;;5116739;27;20051;-87
2021/12/19 01:48:26;;;;;;;2.38;2.28;;;6.30;99.90;;;;;;5135128;27;20050;-87
2021/12/19 01:50:53;;;;;;;2.72;2.20;;;6.20;99.90;;;;;;5116951;27;20108;-87
2021/12/19 01:53:20;;;;;;;3.97;2.33;;;6.30;99.90;;;;;;5116845;27;20070;-86
2021/12/19 01:55:48;;;;;;;3.25;2.08;;;6.30;99.90;;;;;;5116697;27;20039;-87
2021/12/19 01:58:16;;;;;;;3.92;2.35;;;6.40;99.90;;;;;;5116654;27;20054;-87
2021/12/19 02:00:46;;;;;;;2.33;1.85;;;6.30;99.90;;;;;;5134638;27;20133;-87
2021/12/19 02:03:13;;;;;;;2.17;2.00;;;6.40;99.90;;;;;;5116951;27;20047;-87
2021/12/19 02:05:41;;;;;;;3.30;1.83;;;6.30;99.90;;;;;;5116776;27;20448;-87
2021/12/19 02:08:08;;;;;;;4.28;2.13;;;6.30;99.90;;;;;;5116975;27;20485;-87
2021/12/19 02:10:35;;;;;;;1.95;1.45;;;6.20;99.90;;;;;;5116598;27;20053;-87
2021/12/19 02:13:04;;;;;;;2.47;1.70;;;6.20;99.90;;;;;;5116755;27;20099;-87
2021/12/19 02:15:33;;;;;;;4.35;1.60;;;6.10;99.90;;;;;;5127830;27;20130;-87
2021/12/19 02:18:05;;;;;;;3.30;2.40;;;6.10;99.90;;;;;;5117709;27;20047;-87
2021/12/19 02:20:39;;;;;;;2.60;1.90;;;6.00;99.90;;;;;;5116916;27;20049;-86
2021/12/19 02:23:08;;;;;;;1.73;1.30;;;6.00;99.90;;;;;;5134845;27;20054;-87
2021/12/19 02:25:35;;;;;;;2.30;1.60;;;6.00;99.90;;;;;;5134333;27;20146;-87
2021/12/19 02:28:02;;;;;;;3.30;1.85;;;6.00;99.90;;;;;;5116434;27;20051;-87
2021/12/19 02:30:29;;;;;;;2.80;1.80;;;6.10;99.90;;;;;;5116133;27;20055;-87
2021/12/19 02:32:56;;;;;;;1.90;1.80;;;6.10;99.90;;;;;;5134332;27;20521;-87
2021/12/19 02:35:28;;;;;;;2.00;1.73;;;6.10;99.90;;;;;;5116288;28;20171;-87
2021/12/19 02:48:10;;;;;;;3.70;1.40;;;6.00;99.90;;;;;;5134471;28;20043;-87
2021/12/19 02:49:08;;;;;;;1.33;1.23;;;6.00;99.90;;;;;;5134088;28;20051;-87
2021/12/19 02:51:35;;;;;;;3.03;1.58;;;6.00;99.90;;;;;;5116156;28;20217;-86
2021/12/19 02:54:03;;;;;;;1.85;1.75;;;6.00;99.90;;;;;;5115876;28;20498;-87
2021/12/19 02:56:30;;;;;;;1.55;1.45;;;6.00;99.90;;;;;;5115806;28;20129;-87
2021/12/19 02:58:57;;;;;;;2.35;1.50;;;5.90;99.90;;;;;;5115790;28;20086;-87
2021/12/19 03:01:24;;;;;;;1.35;1.30;;;5.90;99.90;;;;;;5134251;28;20486;-87
2021/12/19 03:03:51;;;;;;;1.92;1.25;;;5.80;99.90;;;;;;5115767;28;20071;-87
2021/12/19 03:06:18;;;;;;;2.25;1.92;;;5.80;99.90;;;;;;5115905;28;20141;-87
2021/12/19 03:08:49;;;;;;;1.42;1.42;;;5.90;99.90;;;;;;5134103;28;20047;-87
2021/12/19 03:19:17;;;;;;;2.25;1.50;;;5.90;99.90;;;;;;5133808;28;20138;-86
2021/12/19 03:21:44;;;;;;;3.10;1.40;;;5.90;99.90;;;;;;5115584;28;20079;-87
2021/12/19 03:24:11;;;;;;;2.22;1.17;;;5.90;99.90;;;;;;5116121;28;20372;-87
2021/12/19 03:26:38;;;;;;;1.35;1.35;;;5.90;99.90;;;;;;5137394;27;20130;-87
2021/12/19 03:29:04;;;;;;;2.83;1.27;;;5.80;99.90;;;;;;5120229;27;20055;-87
2021/12/19 03:31:31;;;;;;;1.30;1.27;;;5.80;99.90;;;;;;5129905;27;20054;-87
2021/12/19 03:33:59;;;;;;;1.67;1.27;;;5.70;99.90;;;;;;5120809;27;20049;-87
2021/12/19 03:36:28;;;;;;;3.15;1.85;;;5.70;99.90;;;;;;5119696;27;20096;-87
2021/12/19 03:38:58;;;;;;;2.15;2.05;;;5.60;99.90;;;;;;5119335;27;20161;-87
2021/12/19 03:41:33;;;;;;;2.58;1.63;;;5.60;99.90;;;;;;5137432;27;20043;-87
2021/12/19 03:44:03;;;;;;;1.50;1.40;;;5.50;99.90;;;;;;5137625;27;20483;-87
2021/12/19 03:46:30;;;;;;;2.55;1.60;;;5.40;99.90;;;;;;5137423;27;20047;-87
2021/12/19 03:48:56;;;;;;;1.60;1.50;;;5.40;99.90;;;;;;5137284;27;20393;-87
2021/12/19 03:51:24;;;;;;;3.20;1.50;;;5.40;99.90;;;;;;5137115;27;20053;-87
2021/12/19 03:53:51;;;;;;;1.23;1.20;;;5.40;99.90;;;;;;5137357;27;20050;-87
2021/12/19 03:56:18;;;;;;;1.50;1.50;;;5.20;99.90;;;;;;5119378;27;20050;-87
2021/12/19 03:58:45;;;;;;;1.70;1.42;;;5.20;99.90;;;;;;5137132;27;20064;-87
2021/12/19 04:01:12;;;;;;;1.50;1.40;;;5.10;99.90;;;;;;5118874;27;20051;-87
2021/12/19 04:03:40;;;;;;;2.78;1.30;;;5.00;99.90;;;;;;5118802;27;20053;-87
2021/12/19 04:06:07;;;;;;;2.17;1.73;;;5.00;99.90;;;;;;5119190;27;20452;-86
2021/12/19 04:08:34;;;;;;;6.47;1.90;;;4.80;99.90;;;;;;5119082;27;20094;-86
2021/12/19 04:11:01;;;;;;;4.50;1.38;;;4.50;99.90;;;;;;5119144;27;20529;-87
2021/12/19 04:13:27;;;;;;;1.50;1.42;;;4.50;99.90;;;;;;5118776;27;20138;-87
2021/12/19 04:15:54;;;;;;;3.13;1.48;;;4.30;99.90;;;;;;5118555;27;20477;-87
2021/12/19 04:18:21;;;;;;;4.22;1.50;;;4.20;99.90;;;;;;5118892;27;20414;-87
2021/12/19 04:20:48;;;;;;;1.83;1.70;;;4.20;99.90;;;;;;5118474;27;20137;-87
2021/12/19 04:23:16;;;;;;;5.88;4.25;;;4.00;99.90;;;;;;5118724;27;20096;-87
2021/12/19 04:25:42;;;;;;;2.83;2.45;;;3.90;99.90;;;;;;5118592;27;20092;-86
2021/12/19 04:28:09;;;;;;;4.65;2.00;;;3.70;99.90;;;;;;5118580;27;20057;-87
2021/12/19 04:30:36;;;;;;;2.60;2.25;;;3.50;99.90;;;;;;5117795;27;20047;-87
2021/12/19 04:33:08;;;;;;;1.63;1.48;;;3.40;99.90;;;;;;5118718;27;20051;-87
2021/12/19 04:35:39;;;;;;;2.35;1.90;;;3.30;99.90;;;;;;5118425;27;20411;-86
2021/12/19 04:41:48;;;;;;;1.83;1.70;;;3.00;99.90;;;;;;5136240;27;20093;-87
2021/12/19 04:55:11;;;;;;;1.58;1.40;;;2.30;99.90;;;;;;5135947;27;20533;-86
2021/12/19 04:57:50;;;;;;;3.03;2.08;;;2.20;99.90;;;;;;5135923;27;20491;-86
2021/12/19 05:00:31;;;;;;;3.65;3.10;;;2.00;99.90;;;;;;5117846;27;20501;-86
2021/12/19 05:03:32;;;;;;;7.38;5.30;;;1.90;99.90;;;;;;5118160;27;20062;-87
2021/12/19 05:14:20;;;;;;;2.38;2.28;;;1.70;99.90;;;;;;5135847;27;20051;-86
2021/12/19 05:16:48;;;;;;;2.00;1.90;;;1.60;99.90;;;;;;5118025;27;20079;-87
2021/12/19 05:19:23;;;;;;;2.17;1.98;;;1.60;99.90;;;;;;5117778;27;20047;-87
2021/12/19 05:21:54;;;;;;;4.50;2.40;;;1.50;99.90;;;;;;5118040;27;20057;-86
2021/12/19 05:27:05;;;;;;;2.60;1.92;;;1.40;99.90;;;;;;5135718;27;20042;-87
2021/12/19 05:29:33;;;;;;;4.22;2.72;;;1.30;99.90;;;;;;5117588;27;20070;-87
2021/12/19 05:32:00;;;;;;;3.55;2.25;;;1.20;99.90;;;;;;5135173;27;20055;-86
2021/12/19 05:34:29;;;;;;;4.00;2.70;;;1.10;99.90;;;;;;5135677;27;20483;-87
2021/12/19 05:45:14;;;;;;;4.60;4.20;;;1.00;99.90;;;;;;5135031;27;20039;-86
2021/12/19 05:47:46;;;;;;;6.20;4.82;;;1.00;99.90;;;;;;5134414;27;20385;-87
2021/12/19 05:50:18;;;;;;;3.88;3.47;;;0.90;99.90;;;;;;5117056;27;20047;-87
2021/12/19 05:52:47;;;;;;;7.72;6.00;;;0.90;99.90;;;;;;5117038;27;20058;-87
2021/12/19 05:55:16;;;;;;;74.00;40.83;;;0.70;99.90;;;;;;5116959;27;20047;-87
2021/12/19 05:57:43;;;;;;;31.75;20.42;;;0.60;99.90;;;;;;5116564;27;20047;-86
2021/12/19 06:00:14;;;;;;;9.55;7.25;;;0.50;99.90;;;;;;5116963;27;20047;-86
2021/12/19 06:02:42;;;;;;;3.53;3.15;;;0.40;99.90;;;;;;5124436;27;20053;-86
2021/12/19 06:05:10;;;;;;;7.22;4.70;;;0.40;99.90;;;;;;5123159;27;20407;-87
2021/12/19 06:07:36;;;;;;;3.78;3.53;;;0.40;99.90;;;;;;5116999;27;20039;-87
2021/12/19 06:10:05;;;;;;;4.95;4.32;;;0.40;99.90;;;;;;5116425;27;20078;-87
2021/12/19 06:12:32;;;;;;;3.65;3.30;;;0.40;99.90;;;;;;5116519;27;20051;-87
2021/12/19 06:14:59;;;;;;;3.45;2.58;;;0.40;99.90;;;;;;5116474;27;20045;-87
2021/12/19 06:17:26;;;;;;;2.60;2.40;;;0.30;99.90;;;;;;5116790;28;20410;-87
2021/12/19 06:19:53;;;;;;;2.40;2.22;;;0.30;99.90;;;;;;5116420;27;20050;-87
2021/12/19 06:22:20;;;;;;;1.95;1.83;;;0.30;99.90;;;;;;5116727;27;20050;-86
2021/12/19 06:24:47;;;;;;;2.10;2.00;;;0.20;99.90;;;;;;5116505;27;20051;-86
2021/12/19 06:27:13;;;;;;;2.80;2.53;;;0.10;99.90;;;;;;5116189;27;20053;-86
2021/12/19 06:29:40;;;;;;;6.38;2.30;;;0.10;99.90;;;;;;5116473;27;20047;-87
2021/12/19 06:32:07;;;;;;;4.80;3.30;;;0.00;99.90;;;;;;5133988;27;20057;-86
2021/12/19 06:34:34;;;;;;;5.28;4.05;;;0.00;99.90;;;;;;5116338;27;20054;-86
2021/12/19 06:37:01;;;;;;;3.60;2.70;;;0.00;99.90;;;;;;5133648;27;20072;-87
2021/12/19 06:39:28;;;;;;;5.20;3.05;;;0.00;99.90;;;;;;5116019;28;20039;-87
2021/12/19 06:41:55;;;;;;;5.45;3.42;;;-0.10;99.90;;;;;;5115989;28;20142;-86
2021/12/19 06:44:22;;;;;;;13.38;5.38;;;-0.10;99.90;;;;;;5116227;28;20047;-87
2021/12/19 06:46:49;;;;;;;3.88;2.92;;;-0.20;99.90;;;;;;5134064;28;20070;-86
2021/12/19 06:49:15;;;;;;;4.40;4.00;;;-0.30;99.90;;;;;;5116429;28;20047;-86
2021/12/19 06:51:42;;;;;;;5.95;4.82;;;-0.30;99.90;;;;;;5116179;28;20047;-87
2021/12/19 06:54:09;;;;;;;4.95;3.97;;;-0.30;99.90;;;;;;5134116;28;20050;-86
2021/12/19 06:56:36;;;;;;;8.07;7.28;;;-0.30;99.90;;;;;;5134081;28;20074;-86
2021/12/19 06:59:03;;;;;;;7.65;5.68;;;-0.30;99.90;;;;;;5117192;27;20051;-86
2021/12/19 07:01:30;;;;;;;5.97;5.32;;;-0.30;99.90;;;;;;5120298;27;20070;-86
2021/12/19 07:03:57;;;;;;;4.85;4.10;;;-0.40;99.90;;;;;;5120391;27;20047;-86
2021/12/19 07:06:24;;;;;;;3.92;3.55;;;-0.40;99.90;;;;;;5138081;27;20062;-87
2021/12/19 07:08:51;;;;;;;6.60;4.97;;;-0.50;99.90;;;;;;5138209;27;20047;-86
2021/12/19 07:11:18;;;;;;;5.05;4.03;;;-0.70;99.90;;;;;;5120449;27;20050;-87
2021/12/19 07:13:45;;;;;;;9.88;5.05;;;-0.70;99.90;;;;;;5119805;27;20057;-87
2021/12/19 07:16:12;;;;;;;8.32;5.53;;;-0.70;99.90;;;;;;5121666;27;20092;-86
2021/12/19 07:18:39;;;;;;;5.35;4.82;;;-0.80;99.90;;;;;;5143329;27;20043;-87
2021/12/19 07:21:07;;;;;;;5.40;4.93;;;-0.70;99.90;;;;;;5132872;27;20133;-86
2021/12/19 07:23:34;;;;;;;13.48;7.22;;;-0.70;99.90;;;;;;5120408;27;20047;-86
2021/12/19 07:26:01;;;;;;;6.40;4.80;;;-0.70;99.90;;;;;;5119966;27;20568;-87
2021/12/19 07:28:28;;;;;;;7.80;4.22;;;-0.70;99.90;;;;;;5119974;27;20089;-87
2021/12/19 07:30:56;;;;;;;7.13;3.88;;;-0.80;99.90;;;;;;5137295;27;20059;-87
2021/12/19 07:33:24;;;;;;;5.50;4.25;;;-0.80;99.90;;;;;;5119844;27;20053;-87
2021/12/19 07:35:52;;;;;;;6.13;3.90;;;-0.80;99.90;;;;;;5136312;27;20547;-87
2021/12/19 07:38:37;;;;;;;9.40;4.70;;;-0.90;99.90;;;;;;5119579;27;20391;-87
2021/12/19 07:41:04;;;;;;;7.82;5.20;;;-1.00;99.90;;;;;;5119548;27;20053;-87
2021/12/19 07:43:31;;;;;;;8.35;5.22;;;-1.10;99.90;;;;;;5118989;27;20047;-87
2021/12/19 07:45:58;;;;;;;16.38;9.05;;;-1.10;99.90;;;;;;5136651;27;20047;-87
2021/12/19 07:48:25;;;;;;;13.85;8.50;;;-1.00;99.90;;;;;;5136612;27;20115;-87
2021/12/19 07:50:52;;;;;;;29.52;15.80;;;-1.00;99.90;;;;;;5137688;27;20087;-87
2021/12/19 07:53:19;;;;;;;25.30;13.68;;;-0.90;99.90;;;;;;5119262;27;20525;-87
2021/12/19 07:55:45;;;;;;;32.15;16.80;;;-0.90;99.90;;;;;;5120286;27;20126;-86
2021/12/19 07:58:12;;;;;;;23.52;13.57;;;-1.00;99.90;;;;;;5120317;27;20134;-87
2021/12/19 08:00:39;;;;;;;18.42;11.48;;;-0.90;99.90;;;;;;5119763;27;20043;-87
2021/12/19 08:03:06;;;;;;;20.67;12.55;;;-0.90;99.90;;;;;;5137876;27;20059;-86
2021/12/19 08:05:33;;;;;;;23.38;15.82;;;-1.00;99.90;;;;;;5120301;27;20092;-87
2021/12/19 08:08:03;;;;;;;27.50;16.38;;;-0.90;99.90;;;;;;5120525;27;20053;-87
2021/12/19 08:13:01;;;;;;;15.95;10.65;;;-0.80;99.90;;;;;;5138422;27;20118;-87
2021/12/19 08:15:28;;;;;;;17.45;11.60;;;-0.70;99.90;;;;;;5138268;27;20051;-87
2021/12/19 08:17:54;;;;;;;15.02;10.48;;;-0.70;99.90;;;;;;5119988;27;20055;-87
2021/12/19 08:20:22;;;;;;;12.95;9.07;;;-0.60;99.90;;;;;;5138081;27;20055;-86
2021/12/19 08:22:51;;;;;;;22.10;15.63;;;-0.50;99.90;;;;;;5121459;27;20051;-87
2021/12/19 08:25:18;;;;;;;13.55;10.43;;;-0.40;99.90;;;;;;5138862;27;20069;-86
2021/12/19 08:27:45;;;;;;;9.70;7.22;;;-0.40;99.90;;;;;;5120711;27;20051;-87
2021/12/19 08:30:14;;;;;;;7.43;6.13;;;-0.30;99.90;;;;;;5119899;27;20384;-87
2021/12/19 08:32:42;;;;;;;9.57;6.63;;;-0.30;99.90;;;;;;5138428;27;20503;-87
2021/12/19 08:35:10;;;;;;;7.15;5.72;;;-0.20;99.90;;;;;;5123966;27;20062;-88
2021/12/19 08:37:38;;;;;;;9.38;6.10;;;-0.20;99.90;;;;;;5136323;27;20506;-87
2021/12/19 08:40:09;;;;;;;9.43;6.43;;;-0.10;99.90;;;;;;5120816;27;20047;-88
2021/12/19 08:42:36;;;;;;;9.40;6.45;;;-0.10;99.90;;;;;;5119677;27;20051;-86
2021/12/19 08:45:04;;;;;;;11.77;7.40;;;-0.10;99.90;;;;;;5137151;27;20118;-88
2021/12/19 08:47:31;;;;;;;12.82;8.32;;;0.00;99.90;;;;;;5117595;27;20517;-88
2021/12/19 08:49:58;;;;;;;17.55;9.77;;;0.20;99.90;;;;;;5117943;27;20080;-88
2021/12/19 08:52:25;;;;;;;15.15;8.75;;;0.30;99.90;;;;;;5119789;27;20054;-87
2021/12/19 08:54:52;;;;;;;20.98;12.32;;;0.60;99.90;;;;;;5139488;27;20404;-88
2021/12/19 08:57:22;;;;;;;32.67;17.13;;;0.70;99.90;;;;;;5121715;27;20134;-88
2021/12/19 08:59:49;;;;;;;90.28;40.47;;;0.80;99.90;;;;;;5120230;27;20495;-87
2021/12/19 09:02:15;;;;;;;35.03;20.67;;;1.00;99.90;;;;;;5120465;27;20111;-88
2021/12/19 09:04:42;;;;;;;20.27;13.55;;;1.10;99.90;;;;;;5111142;27;20126;-88
2021/12/19 09:07:09;;;;;;;14.82;9.80;;;1.30;99.90;;;;;;5108060;28;20058;-88
2021/12/19 09:09:36;;;;;;;15.90;10.85;;;1.40;99.90;;;;;;5097250;28;20058;-88
2021/12/19 09:12:03;;;;;;;12.75;8.27;;;1.50;99.90;;;;;;5098735;28;20048;-88
2021/12/19 09:14:30;;;;;;;17.20;9.45;;;1.70;99.90;;;;;;5105954;27;20039;-88
2021/12/19 09:16:57;;;;;;;15.98;11.93;;;1.80;99.90;;;;;;5107036;27;20043;-87
2021/12/19 09:19:25;;;;;;;17.58;12.65;;;1.80;99.90;;;;;;5109769;27;20501;-87
2021/12/19 09:21:52;;;;;;;14.88;11.13;;;1.70;99.90;;;;;;5108638;27;20138;-88
2021/12/19 09:24:19;;;;;;;6.32;5.70;;;1.70;99.90;;;;;;5117234;27;20398;-88
2021/12/19 09:26:46;;;;;;;5.32;4.32;;;1.70;99.90;;;;;;5117807;27;20469;-88
2021/12/19 09:29:13;;;;;;;5.95;4.85;;;1.70;99.90;;;;;;5117002;27;20051;-87
2021/12/19 09:31:40;;;;;;;5.78;4.55;;;1.80;99.90;;;;;;5116822;27;20081;-88
2021/12/19 09:34:07;;;;;;;5.70;4.22;;;1.80;99.90;;;;;;5116267;27;20043;-87
2021/12/19 09:36:35;;;;;;;6.55;5.10;;;1.90;99.90;;;;;;5116898;27;20111;-88
2021/12/19 09:39:04;;;;;;;7.40;5.00;;;2.00;99.90;;;;;;5116966;27;20046;-87
2021/12/19 09:41:34;;;;;;;9.82;5.82;;;2.00;99.90;;;;;;5117253;27;20055;-87
2021/12/19 09:44:04;;;;;;;5.80;5.25;;;2.20;99.90;;;;;;5118177;27;20042;-87
2021/12/19 09:46:35;;;;;;;7.90;5.90;;;2.40;99.90;;;;;;5118644;27;20051;-87
2021/12/19 09:49:05;;;;;;;6.75;4.72;;;2.50;99.90;;;;;;5116954;27;20070;-87
2021/12/19 09:51:31;;;;;;;5.18;4.68;;;2.70;99.90;;;;;;5117332;27;20042;-87
2021/12/19 09:53:58;;;;;;;4.55;4.15;;;2.80;99.90;;;;;;5130446;27;20112;-86
2021/12/19 09:56:26;;;;;;;5.05;4.60;;;2.80;99.90;;;;;;5122649;27;20035;-87
2021/12/19 09:58:53;;;;;;;5.05;4.30;;;2.90;99.90;;;;;;5116923;27;20050;-87
2021/12/19 10:01:20;;;;;;;5.85;4.53;;;2.90;99.90;;;;;;5116354;27;20051;-87
2021/12/19 10:03:47;;;;;;;7.63;4.60;;;3.00;99.90;;;;;;5116884;27;20133;-86
2021/12/19 10:06:20;;;;;;;5.35;4.80;;;3.10;99.90;;;;;;5109378;27;20053;-87
2021/12/19 10:08:52;;;;;;;7.13;4.60;;;3.10;99.90;;;;;;5096249;28;20044;-86
2021/12/19 10:11:45;;;;;;;4.20;3.80;;;3.20;99.90;;;;;;5115128;27;20671;-87
2021/12/19 10:14:33;;;;;;;5.70;4.00;;;3.30;99.90;;;;;;5116796;27;20054;-87
2021/12/19 10:17:15;;;;;;;5.45;4.45;;;3.30;99.90;;;;;;5116740;27;20051;-87
2021/12/19 10:19:44;;;;;;;5.03;4.43;;;3.30;99.90;;;;;;5117900;27;20043;-86
2021/12/19 10:22:33;;;;;;;4.20;3.80;;;3.40;99.90;;;;;;5116820;27;20047;-87
2021/12/19 10:25:09;;;;;;;7.57;4.30;;;3.50;99.90;;;;;;5116809;27;20145;-87
2021/12/19 10:27:38;;;;;;;6.07;4.47;;;3.70;99.90;;;;;;5116532;27;20145;-86
2021/12/19 10:30:09;;;;;;;7.05;4.32;;;3.80;99.90;;;;;;5117318;28;20464;-86
2021/12/19 10:32:36;;;;;;;6.50;4.40;;;3.90;99.90;;;;;;5115268;28;20047;-87
2021/12/19 10:35:26;;;;;;;4.15;3.72;;;4.00;99.90;;;;;;5115884;27;20079;-87
2021/12/19 10:37:53;;;;;;;6.05;3.60;;;4.00;99.90;;;;;;5115587;28;20374;-87
2021/12/19 10:40:20;;;;;;;4.10;3.35;;;4.20;99.90;;;;;;5115444;28;20074;-87
2021/12/19 10:42:59;;;;;;;5.30;3.80;;;4.30;99.90;;;;;;5115438;28;20047;-87
2021/12/19 10:45:42;;;;;;;5.45;3.88;;;4.40;99.90;;;;;;5115486;28;20051;-86
2021/12/19 10:48:15;;;;;;;6.30;3.55;;;4.60;99.90;;;;;;5116952;28;20051;-86
2021/12/19 10:50:52;;;;;;;4.28;3.25;;;4.80;99.90;;;;;;5118558;28;20050;-87
2021/12/19 10:53:25;;;;;;;3.67;3.13;;;4.90;99.90;;;;;;5116598;28;20047;-87
2021/12/19 10:55:52;;;;;;;7.15;2.78;;;5.10;99.90;;;;;;5116452;28;20418;-86
2021/12/19 10:58:30;;;;;;;3.13;2.83;;;5.30;99.90;;;;;;5134101;28;20107;-86
2021/12/19 11:01:04;;;;;;;3.67;3.20;;;5.50;99.90;;;;;;5115961;28;20051;-87
2021/12/19 11:03:45;;;;;;;4.13;3.08;;;5.50;99.90;;;;;;5116761;28;20039;-86
2021/12/19 11:06:16;;;;;;;7.32;3.50;;;5.70;99.90;;;;;;5116375;28;20055;-87
2021/12/19 11:08:50;;;;;;;5.68;3.85;;;5.80;99.90;;;;;;5121154;28;20043;-87
2021/12/19 11:11:34;;;;;;;4.70;3.90;;;5.80;99.90;;;;;;5141902;28;20130;-86
2021/12/19 11:14:02;;;;;;;6.07;4.68;;;5.80;99.90;;;;;;5116709;28;20082;-87
2021/12/19 11:16:30;;;;;;;5.60;4.22;;;5.90;99.90;;;;;;5116317;28;20047;-87
2021/12/19 11:18:57;;;;;;;5.05;4.07;;;5.90;99.90;;;;;;5116397;28;20047;-87
2021/12/19 11:21:25;;;;;;;7.05;4.10;;;6.00;99.90;;;;;;5116343;28;20151;-87
2021/12/19 11:23:51;;;;;;;3.80;3.50;;;6.10;99.90;;;;;;5115881;28;20058;-87
2021/12/19 11:26:20;;;;;;;4.80;4.25;;;6.20;99.90;;;;;;5115304;28;20047;-87
2021/12/19 11:28:48;;;;;;;6.25;4.90;;;6.40;99.90;;;;;;5133266;28;20053;-87
2021/12/19 11:31:16;;;;;;;19.90;12.52;;;6.30;99.90;;;;;;5114988;28;20422;-87
2021/12/19 11:34:20;;;;;;;18.33;7.78;;;6.30;99.90;;;;;;5114999;28;20053;-87
2021/12/19 11:37:07;;;;;;;22.50;11.35;;;6.40;99.90;;;;;;5115196;28;20057;-87
2021/12/19 11:39:37;;;;;;;7.18;4.85;;;6.30;99.90;;;;;;5133728;28;20145;-86
2021/12/19 11:42:14;;;;;;;12.70;7.32;;;6.20;99.90;;;;;;5115868;28;20047;-86
2021/12/19 11:47:55;;;;;;;25.10;13.43;;;6.00;99.90;;;;;;5138231;27;20507;-86
2021/12/19 11:50:34;;;;;;;19.77;12.45;;;6.10;99.90;;;;;;5104814;27;20051;-87
2021/12/19 11:53:07;;;;;;;21.13;12.32;;;6.40;99.90;;;;;;5120388;27;20134;-86
2021/12/19 11:55:35;;;;;;;6.53;4.85;;;6.30;99.90;;;;;;5138534;27;20047;-86
2021/12/19 11:58:08;;;;;;;8.20;4.13;;;6.20;99.90;;;;;;5120637;27;20550;-86
2021/12/19 12:00:54;;;;;;;8.02;3.90;;;6.20;99.90;;;;;;5120466;27;20061;-86
2021/12/19 12:03:27;;;;;;;31.25;21.33;;;6.30;99.90;;;;;;5119929;27;20047;-87
2021/12/19 12:06:20;;;;;;;13.27;7.68;;;6.40;99.90;;;;;;5138313;27;20506;-87
2021/12/19 12:09:06;;;;;;;7.25;4.65;;;6.70;99.90;;;;;;5119385;27;20093;-86
2021/12/19 12:12:00;;;;;;;10.48;4.68;;;6.80;99.90;;;;;;5136958;27;20501;-86
2021/12/19 12:14:33;;;;;;;12.43;5.38;;;6.90;99.90;;;;;;5120159;27;20039;-86
2021/12/19 12:17:14;;;;;;;8.93;6.05;;;6.90;99.90;;;;;;5120708;27;20472;-87
2021/12/19 12:19:46;;;;;;;9.60;5.65;;;7.20;99.90;;;;;;5119991;27;20138;-87
2021/12/19 12:22:21;;;;;;;7.38;5.55;;;7.40;99.90;;;;;;5121300;27;20043;-87
2021/12/19 12:25:18;;;;;;;8.45;4.95;;;7.70;99.90;;;;;;5125829;27;20047;-86
2021/12/19 12:27:56;;;;;;;5.18;4.00;;;7.60;99.90;;;;;;5121312;27;20134;-87
2021/12/19 12:30:26;;;;;;;4.78;3.30;;;7.60;99.90;;;;;;5118926;27;20546;-87
2021/12/19 12:32:55;;;;;;;3.47;3.17;;;7.60;99.90;;;;;;5118205;27;20061;-86
2021/12/19 12:35:25;;;;;;;4.22;3.30;;;7.40;99.90;;;;;;5118584;27;20110;-87
2021/12/19 12:37:54;;;;;;;3.08;2.50;;;7.50;99.90;;;;;;5118579;27;20145;-86
2021/12/19 12:40:29;;;;;;;2.47;1.70;;;7.40;99.90;;;;;;5137224;27;20495;-87
2021/12/19 12:43:18;;;;;;;8.27;5.60;;;7.40;99.90;;;;;;5117957;27;20085;-85
2021/12/19 12:46:02;;;;;;;3.45;2.10;;;7.10;99.90;;;;;;5118686;27;20051;-86
2021/12/19 12:48:50;;;;;;;0.77;0.77;;;7.10;99.90;;;;;;5118337;27;20047;-87
2021/12/19 12:51:24;;;;;;;5.20;1.30;;;7.20;99.90;;;;;;5118223;27;20471;-86
2021/12/19 12:53:54;;;;;;;3.28;1.08;;;7.40;99.90;;;;;;5117197;27;20047;-86
2021/12/19 12:56:24;;;;;;;0.60;0.50;;;7.40;99.90;;;;;;5116487;27;20054;-88
2021/12/19 12:58:55;;;;;;;0.45;0.45;;;7.50;99.90;;;;;;5117955;27;20073;-88
2021/12/19 13:01:37;;;;;;;3.85;2.92;;;7.50;99.90;;;;;;5135927;27;20047;-87
2021/12/19 13:04:24;;;;;;;1.45;1.35;;;7.50;99.90;;;;;;5117809;27;20131;-86
2021/12/19 13:06:58;;;;;;;2.50;1.50;;;7.30;99.90;;;;;;5117985;27;20498;-87
2021/12/19 13:09:27;;;;;;;0.60;0.60;;;7.30;99.90;;;;;;5117686;27;20043;-86
2021/12/19 13:12:25;;;;;;;0.50;0.50;;;7.30;99.90;;;;;;5117366;27;20524;-87
2021/12/19 13:15:04;;;;;;;0.60;0.60;;;7.20;99.90;;;;;;5135685;27;20043;-87
2021/12/19 13:17:33;;;;;;;0.60;0.60;;;7.10;99.90;;;;;;5135646;27;20043;-86
2021/12/19 13:20:14;;;;;;;0.77;0.63;;;7.00;99.90;;;;;;5118040;27;20129;-87
2021/12/19 13:22:47;;;;;;;0.73;0.73;;;6.90;99.90;;;;;;5116787;27;20073;-87
2021/12/19 13:25:22;;;;;;;0.40;0.40;;;6.80;99.90;;;;;;5135576;27;20064;-87
2021/12/19 13:27:54;;;;;;;2.40;1.70;;;6.70;99.90;;;;;;5135402;27;20043;-87
2021/12/19 13:30:24;;;;;;;3.45;2.63;;;6.70;99.90;;;;;;5117424;27;20082;-87
2021/12/19 13:32:56;;;;;;;5.15;2.75;;;6.60;99.90;;;;;;5116968;27;20062;-87
2021/12/19 13:35:30;;;;;;;0.50;0.50;;;6.60;99.90;;;;;;5117460;27;20448;-87
2021/12/19 13:38:24;;;;;;;0.73;0.73;;;6.60;99.90;;;;;;5135360;27;20126;-86
2021/12/19 13:41:01;;;;;;;2.92;0.47;;;6.40;99.90;;;;;;5117654;27;20115;-87
2021/12/19 13:43:32;;;;;;;1.92;1.83;;;6.40;99.90;;;;;;5135209;27;20043;-86
2021/12/19 13:46:01;;;;;;;8.07;4.03;;;6.30;99.90;;;;;;5117229;27;20051;-87
2021/12/19 13:48:51;;;;;;;2.05;1.02;;;6.30;99.90;;;;;;5117194;27;20070;-87
2021/12/19 13:51:22;;;;;;;0.40;0.40;;;6.30;99.90;;;;;;5135216;27;20554;-87
2021/12/19 13:53:53;;;;;;;3.47;0.90;;;6.30;99.90;;;;;;5134764;27;20456;-87
2021/12/19 13:56:25;;;;;;;1.58;0.70;;;6.20;99.90;;;;;;5117337;27;20092;-86
2021/12/19 13:58:55;;;;;;;0.40;0.40;;;6.20;99.90;;;;;;5135328;27;20055;-87
2021/12/19 14:01:24;;;;;;;0.35;0.35;;;6.20;99.90;;;;;;5117024;27;20043;-86
2021/12/19 14:04:05;;;;;;;1.42;0.40;;;6.20;99.90;;;;;;5116883;27;20122;-86
2021/12/19 14:06:35;;;;;;;33.53;2.05;;;6.30;99.90;;;;;;5116977;27;20054;-87
2021/12/19 14:09:10;;;;;;;5.10;1.00;;;6.10;99.90;;;;;;5116460;27;20039;-87
2021/12/19 14:11:44;;;;;;;0.80;0.80;;;6.10;99.90;;;;;;5117495;27;20074;-87